Time;durP1;ratioP1;P1;durP2;ratioP2;P2;SDS_P1;SDS_P2;PMS_P1;PMS_P2;Temp;Humidity;BMP_temperature;BMP_pressure;BME280_temperature;BME280_humidity;BME280_pressure;Samples;Min_cycle;Max_cycle;Signal;HPM_P1;HPM_P2
2021/12/14 00:00:11;;;;;;;;;;;;;;;27.05;60.58;97424.18;601871;235;63833;-63
2021/12/14 00:02:41;;;;;;;;;;;;;;;27.03;63.59;97429.07;601939;235;45831;-63
2021/12/14 00:05:10;;;;;;;;;;;;;;;27.04;60.58;97433.39;601858;235;66638;-63
2021/12/14 00:07:38;;;;;;;;;;;;;;;27.02;62.98;97430.18;601933;235;65097;-63
2021/12/14 00:10:16;;;;;;;;;;;;;;;27.00;61.65;97435.07;601817;235;64759;-63
2021/12/14 00:12:42;;;;;;;;;;;;;;;26.99;63.07;97436.18;601453;235;64532;-63
2021/12/14 00:15:06;;;;;;;;;;;;;;;26.97;62.35;97443.77;601639;235;62954;-63
2021/12/14 00:17:35;;;;;;;;;;;;;;;26.98;62.18;97439.95;601861;235;64537;-63
2021/12/14 00:20:04;;;;;;;;;;;;;;;26.95;62.33;97440.56;601909;235;64435;-64
2021/12/14 00:25:01;;;;;;;;;;;;;;;26.93;63.14;97432.78;601861;235;64737;-64
2021/12/14 00:27:29;;;;;;;;;;;;;;;26.92;63.72;97435.77;601840;235;64863;-64
2021/12/14 00:29:58;;;;;;;;;;;;;;;26.91;63.67;97434.98;601950;235;62755;-72
2021/12/14 00:32:27;;;;;;;;;;;;;;;26.91;65.01;97444.97;601867;235;66837;-70
2021/12/14 00:34:58;;;;;;;;;;;;;;;26.87;64.70;97444.75;601905;235;64550;-71
2021/12/14 00:37:27;;;;;;;;;;;;;;;26.87;63.51;97447.45;601857;235;65127;-71
2021/12/14 00:39:56;;;;;;;;;;;;;;;26.87;65.42;97452.84;601547;235;65371;-71
2021/12/14 00:42:24;;;;;;;;;;;;;;;26.86;64.91;97450.45;601885;235;67316;-71
2021/12/14 00:44:52;;;;;;;;;;;;;;;26.86;63.45;97442.37;601881;235;62692;-70
2021/12/14 00:47:20;;;;;;;;;;;;;;;26.86;65.07;97447.77;601863;235;66753;-70
2021/12/14 00:49:48;;;;;;;;;;;;;;;26.83;61.59;97449.16;601886;235;65428;-70
2021/12/14 00:52:15;;;;;;;;;;;;;;;26.85;64.90;97443.48;601822;235;64860;-70
2021/12/14 00:54:43;;;;;;;;;;;;;;;26.83;64.97;97442.97;601883;235;64884;-71
2021/12/14 00:57:11;;;;;;;;;;;;;;;26.82;64.60;97452.96;601835;235;67589;-70
2021/12/14 00:59:38;;;;;;;;;;;;;;;26.81;64.42;97450.55;601843;235;65015;-70
2021/12/14 01:02:11;;;;;;;;;;;;;;;26.81;65.25;97453.25;601877;235;64715;-71
2021/12/14 01:04:40;;;;;;;;;;;;;;;26.76;64.69;97460.34;601747;235;66880;-70
2021/12/14 01:07:09;;;;;;;;;;;;;;;26.77;65.36;97464.63;601826;235;65263;-70
2021/12/14 01:09:38;;;;;;;;;;;;;;;26.77;63.92;97463.84;601898;235;67178;-71
2021/12/14 01:12:11;;;;;;;;;;;;;;;26.76;64.65;97459.52;601850;235;66759;-71
2021/12/14 01:14:45;;;;;;;;;;;;;;;26.75;64.91;97460.63;601807;235;65099;-70
2021/12/14 01:17:26;;;;;;;;;;;;;;;26.73;65.21;97452.83;601803;235;66969;-71
2021/12/14 01:19:46;;;;;;;;;;;;;;;26.73;64.65;97452.83;601379;235;64283;-71
2021/12/14 01:22:32;;;;;;;;;;;;;;;26.72;64.55;97459.33;601854;235;62918;-64
2021/12/14 01:27:20;;;;;;;;;;;;;;;26.71;64.45;97467.70;601856;235;66857;-64
2021/12/14 01:29:52;;;;;;;;;;;;;;;26.70;64.83;97464.21;601830;235;64980;-64
2021/12/14 01:32:18;;;;;;;;;;;;;;;26.70;64.29;97461.52;601824;235;64586;-64
2021/12/14 01:34:46;;;;;;;;;;;;;;;26.69;62.87;97453.74;601879;235;66366;-64
2021/12/14 01:37:18;;;;;;;;;;;;;;;26.68;64.49;97454.81;601857;235;62606;-64
2021/12/14 01:40:07;;;;;;;;;;;;;;;26.69;64.13;97454.53;601787;235;64384;-64
2021/12/14 01:42:20;;;;;;;;;;;;;;;26.67;63.64;97456.72;600662;235;67621;-63
2021/12/14 01:44:49;;;;;;;;;;;;;;;26.66;66.33;97457.83;601917;235;63651;-63
2021/12/14 01:47:23;;;;;;;;;;;;;;;26.64;63.88;97465.41;601782;235;43814;-63
2021/12/14 01:49:55;;;;;;;;;;;;;;;26.64;64.49;97453.83;601055;235;44019;-63
2021/12/14 01:52:32;;;;;;;;;;;;;;;26.65;64.67;97453.52;601533;235;43893;-62
2021/12/14 01:55:01;;;;;;;;;;;;;;;26.62;62.86;97459.50;601835;235;64537;-63
2021/12/14 01:57:31;;;;;;;;;;;;;;;26.61;63.44;97454.42;602129;235;67188;-63
2021/12/14 02:00:01;;;;;;;;;;;;;;;26.62;64.52;97453.32;602668;235;64898;-63
2021/12/14 02:02:40;;;;;;;;;;;;;;;26.61;65.46;97451.73;602591;235;67336;-63
2021/12/14 02:05:05;;;;;;;;;;;;;;;26.60;64.63;97461.72;602442;235;67581;-63
2021/12/14 02:07:33;;;;;;;;;;;;;;;26.58;63.99;97460.42;602587;235;65735;-63
2021/12/14 02:10:02;;;;;;;;;;;;;;;26.58;65.71;97458.52;602637;235;67905;-63
2021/12/14 02:12:31;;;;;;;;;;;;;;;26.56;66.42;97456.10;602618;235;67232;-63
2021/12/14 02:15:05;;;;;;;;;;;;;;;26.54;64.24;97452.89;602715;235;41601;-63
2021/12/14 02:17:33;;;;;;;;;;;;;;;26.55;64.23;97459.91;602577;235;72258;-64
2021/12/14 02:20:00;;;;;;;;;;;;;;;26.53;65.93;97455.91;602621;235;66948;-64
2021/12/14 02:22:28;;;;;;;;;;;;;;;26.50;66.43;97454.57;602655;235;62586;-64
2021/12/14 02:24:56;;;;;;;;;;;;;;;26.49;65.60;97463.77;602678;235;66814;-64
2021/12/14 02:27:23;;;;;;;;;;;;;;;26.48;66.45;97453.27;602642;235;67342;-64
2021/12/14 02:29:52;;;;;;;;;;;;;;;26.49;66.21;97457.55;602648;235;65039;-64
2021/12/14 02:32:21;;;;;;;;;;;;;;;26.49;65.95;97457.55;602601;235;64189;-62
2021/12/14 02:34:50;;;;;;;;;;;;;;;26.47;63.34;97457.86;602628;235;64335;-63
2021/12/14 02:37:19;;;;;;;;;;;;;;;26.47;64.02;97457.86;602608;235;64989;-63
2021/12/14 02:40:00;;;;;;;;;;;;;;;26.48;64.73;97459.45;602667;235;64476;-63
2021/12/14 02:42:18;;;;;;;;;;;;;;;26.44;62.55;97458.45;602076;235;63849;-63
2021/12/14 02:44:46;;;;;;;;;;;;;;;26.46;64.75;97466.23;602551;235;65913;-63
2021/12/14 02:47:16;;;;;;;;;;;;;;;26.45;63.76;97461.95;602623;235;66563;-63
2021/12/14 02:49:45;;;;;;;;;;;;;;;26.43;66.43;97456.84;602643;235;67263;-63
2021/12/14 02:52:24;;;;;;;;;;;;;;;26.42;63.48;97465.23;602620;235;65222;-63
2021/12/14 02:54:48;;;;;;;;;;;;;;;26.42;66.17;97457.95;602288;235;66942;-63
2021/12/14 02:57:17;;;;;;;;;;;;;;;26.40;65.71;97457.44;602562;235;67459;-63
2021/12/14 02:59:46;;;;;;;;;;;;;;;26.39;66.29;97460.44;602621;235;65198;-63
2021/12/14 03:02:15;;;;;;;;;;;;;;;26.38;63.36;97456.92;602595;235;67067;-63
2021/12/14 03:04:45;;;;;;;;;;;;;;;26.37;66.12;97458.03;602639;235;66703;-63
2021/12/14 03:07:13;;;;;;;;;;;;;;;26.38;66.21;97464.21;602648;235;64884;-63
2021/12/14 03:10:00;;;;;;;;;;;;;;;26.34;66.07;97466.70;602692;235;65267;-71
2021/12/14 03:12:36;;;;;;;;;;;;;;;26.33;66.21;97463.22;602559;235;64490;-71
2021/12/14 03:15:08;;;;;;;;;;;;;;;26.33;62.80;97468.61;602672;235;62660;-71
2021/12/14 03:17:37;;;;;;;;;;;;;;;26.33;65.97;97462.42;602638;235;66535;-71
2021/12/14 03:20:06;;;;;;;;;;;;;;;26.31;66.90;97464.60;602662;235;66817;-71
2021/12/14 03:22:38;;;;;;;;;;;;;;;26.27;67.52;97464.41;602377;235;64990;-71
2021/12/14 03:25:06;;;;;;;;;;;;;;;26.28;67.05;97460.60;602652;235;67174;-71
2021/12/14 03:27:37;;;;;;;;;;;;;;;26.29;63.56;97467.58;602639;235;66826;-70
2021/12/14 03:30:05;;;;;;;;;;;;;;;26.29;67.59;97462.19;602601;235;66184;-69
2021/12/14 03:32:34;;;;;;;;;;;;;;;26.29;65.59;97466.78;602633;235;66984;-70
2021/12/14 03:35:03;;;;;;;;;;;;;;;26.25;68.01;97466.58;602662;235;66732;-70
2021/12/14 03:37:31;;;;;;;;;;;;;;;26.24;65.97;97464.97;602663;235;62504;-70
2021/12/14 03:40:00;;;;;;;;;;;;;;;26.26;65.76;97462.78;602651;235;67312;-71
2021/12/14 03:42:38;;;;;;;;;;;;;;;26.26;66.10;97462.78;602607;235;64589;-71
2021/12/14 03:45:09;;;;;;;;;;;;;;;26.21;67.69;97473.64;602576;235;43939;-71
2021/12/14 03:47:38;;;;;;;;;;;;;;;26.23;66.86;97474.16;602463;235;67256;-70
2021/12/14 03:50:07;;;;;;;;;;;;;;;26.22;66.57;97471.73;602616;235;64932;-71
2021/12/14 03:52:36;;;;;;;;;;;;;;;26.20;64.53;97466.66;602598;235;64956;-71
2021/12/14 03:55:06;;;;;;;;;;;;;;;26.22;67.19;97477.95;602591;235;67277;-71
2021/12/14 03:57:33;;;;;;;;;;;;;;;26.21;65.82;97475.53;601005;233;67029;-71
2021/12/14 04:00:04;;;;;;;;;;;;;;;26.17;66.19;97477.23;601840;235;65853;-71
2021/12/14 04:02:34;;;;;;;;;;;;;;;26.14;67.51;97484.01;594976;235;71268;-72
2021/12/14 04:05:06;;;;;;;;;;;;;;;26.15;67.02;97482.11;601875;235;66712;-71
2021/12/14 04:07:34;;;;;;;;;;;;;;;26.14;63.51;97481.31;601873;235;64943;-71
2021/12/14 04:10:05;;;;;;;;;;;;;;;26.13;67.90;97482.39;601514;235;44443;-72
2021/12/14 04:12:32;;;;;;;;;;;;;;;26.09;68.25;97490.27;601813;235;67328;-71
2021/12/14 04:15:01;;;;;;;;;;;;;;;26.06;68.95;97485.47;601926;235;63627;-72
2021/12/14 04:17:30;;;;;;;;;;;;;;;26.07;68.51;97488.95;602003;235;67233;-72
2021/12/14 04:19:57;;;;;;;;;;;;;;;26.06;67.19;97488.16;601950;235;64751;-72
2021/12/14 04:22:27;;;;;;;;;;;;;;;26.06;64.16;97490.05;601845;235;65110;-70
2021/12/14 04:25:00;;;;;;;;;;;;;;;26.05;68.54;97489.23;601859;235;67292;-70
2021/12/14 04:27:29;;;;;;;;;;;;;;;26.03;68.13;97490.64;601826;235;66949;-71
2021/12/14 04:29:58;;;;;;;;;;;;;;;26.04;66.65;97495.72;601873;235;62510;-71
2021/12/14 04:32:26;;;;;;;;;;;;;;;26.04;65.93;97492.23;601831;235;64618;-71
2021/12/14 04:34:55;;;;;;;;;;;;;;;26.03;67.28;97491.44;601918;235;67369;-71
2021/12/14 04:37:23;;;;;;;;;;;;;;;26.04;67.97;97503.01;601823;235;65096;-72
2021/12/14 04:40:13;;;;;;;;;;;;;;;26.05;62.61;97496.52;601849;235;67460;-71
2021/12/14 04:53:35;;;;;;;;;;;;;;;25.98;65.68;97496.89;601892;235;65910;-64
2021/12/14 04:56:04;;;;;;;;;;;;;;;25.96;64.55;97506.36;601879;235;65108;-63
2021/12/14 04:58:33;;;;;;;;;;;;;;;25.97;66.57;97505.25;602470;235;67583;-63
2021/12/14 05:01:02;;;;;;;;;;;;;;;25.96;63.11;97506.36;602609;235;65175;-64
2021/12/14 05:03:31;;;;;;;;;;;;;;;25.95;64.81;97504.77;602579;235;67621;-64
2021/12/14 05:11:14;;;;;;;;;;;;;;;25.97;67.36;97514.13;602615;235;67175;-63
2021/12/14 05:13:47;;;;;;;;;;;;;;;25.94;66.84;97519.30;596153;235;68259;-63
2021/12/14 05:16:21;;;;;;;;;;;;;;;25.94;64.60;97513.92;602379;235;42475;-63
2021/12/14 05:18:53;;;;;;;;;;;;;;;25.94;64.03;97525.48;602456;235;67189;-63
2021/12/14 05:21:26;;;;;;;;;;;;;;;25.94;63.24;97524.69;602413;235;67127;-63
2021/12/14 05:23:53;;;;;;;;;;;;;;;25.94;62.84;97519.30;602604;235;62975;-63
2021/12/14 05:26:21;;;;;;;;;;;;;;;25.94;67.17;97532.77;596202;235;68530;-63
2021/12/14 05:28:50;;;;;;;;;;;;;;;25.93;67.82;97528.48;602516;235;67352;-63
2021/12/14 05:31:20;;;;;;;;;;;;;;;25.92;68.22;97538.46;602607;235;65894;-63
2021/12/14 05:33:50;;;;;;;;;;;;;;;25.89;68.48;97533.63;602619;235;67815;-63
2021/12/14 05:36:23;;;;;;;;;;;;;;;25.89;68.42;97534.45;602522;235;44236;-63
2021/12/14 05:44:18;;;;;;;;;;;;;;;25.88;69.35;97543.61;602405;235;43419;-63
2021/12/14 05:46:50;;;;;;;;;;;;;;;25.90;68.71;97551.41;602631;235;65252;-63
2021/12/14 05:49:32;;;;;;;;;;;;;;;25.91;68.12;97553.80;602328;235;50000;-64
2021/12/14 05:52:01;;;;;;;;;;;;;;;25.90;67.61;97551.41;602455;235;66993;-64
2021/12/14 05:54:31;;;;;;;;;;;;;;;25.93;67.76;97552.72;602253;235;63645;-64
2021/12/14 05:57:01;;;;;;;;;;;;;;;25.89;66.74;97557.87;602214;235;64705;-64
2021/12/14 05:59:31;;;;;;;;;;;;;;;25.90;67.93;97562.97;602514;235;66759;-64
2021/12/14 06:02:00;;;;;;;;;;;;;;;25.90;68.12;97559.48;602611;235;62459;-64
2021/12/14 06:04:29;;;;;;;;;;;;;;;25.90;68.66;97568.36;602616;235;67190;-72
2021/12/14 06:06:57;;;;;;;;;;;;;;;25.90;69.41;97565.67;602501;235;67800;-72
2021/12/14 06:09:31;;;;;;;;;;;;;;;25.91;68.08;97564.56;602605;235;65150;-72
2021/12/14 06:12:11;;;;;;;;;;;;;;;25.93;69.34;97563.49;602705;235;44396;-72
2021/12/14 06:14:50;;;;;;;;;;;;;;;25.94;69.12;97576.65;602609;235;67522;-62
2021/12/14 06:17:12;;;;;;;;;;;;;;;25.94;68.24;97571.27;602323;235;65175;-64
2021/12/14 06:19:42;;;;;;;;;;;;;;;25.94;68.46;97570.47;602612;235;67171;-64
2021/12/14 06:22:13;;;;;;;;;;;;;;;25.95;68.17;97564.02;602573;235;48193;-64
2021/12/14 06:24:41;;;;;;;;;;;;;;;25.97;67.57;97575.27;602536;235;65063;-64
2021/12/14 06:27:11;;;;;;;;;;;;;;;25.98;68.94;97575.00;602528;235;67601;-64
2021/12/14 06:29:40;;;;;;;;;;;;;;;25.98;66.64;97571.50;602621;235;66887;-63
2021/12/14 06:32:10;;;;;;;;;;;;;;;26.00;67.93;97577.37;602591;235;65783;-63
2021/12/14 06:34:39;;;;;;;;;;;;;;;26.00;68.40;97583.59;602514;235;65210;-63
2021/12/14 06:37:30;;;;;;;;;;;;;;;26.02;66.97;97585.98;602657;235;65422;-64
2021/12/14 06:40:02;;;;;;;;;;;;;;;26.02;67.11;97583.28;601694;235;65431;-64
2021/12/14 06:42:30;;;;;;;;;;;;;;;26.03;66.97;97584.91;602599;235;65488;-63
2021/12/14 06:45:04;;;;;;;;;;;;;;;26.04;67.76;97589.19;602619;235;48343;-71
2021/12/14 06:47:33;;;;;;;;;;;;;;;26.04;66.23;97589.19;602301;235;62918;-71
2021/12/14 06:50:02;;;;;;;;;;;;;;;26.05;67.62;97596.17;602607;235;66759;-71
2021/12/14 06:52:29;;;;;;;;;;;;;;;26.06;67.63;97600.48;602570;235;66814;-71
2021/12/14 06:55:02;;;;;;;;;;;;;;;26.07;68.13;97599.38;601655;235;46647;-69
2021/12/14 06:57:43;;;;;;;;;;;;;;;26.07;67.67;97607.47;601105;235;44092;-70
2021/12/14 07:00:16;;;;;;;;;;;;;;;26.06;68.43;97611.26;601942;235;47163;-70
2021/12/14 07:02:52;;;;;;;;;;;;;;;26.07;66.99;97604.77;602516;235;42486;-67
2021/12/14 07:05:25;;;;;;;;;;;;;;;26.06;66.94;97603.18;602053;235;46621;-62
2021/12/14 07:07:54;;;;;;;;;;;;;;;26.06;66.94;97609.36;602486;235;45717;-68
2021/12/14 07:10:22;;;;;;;;;;;;;;;26.05;62.12;97617.72;602489;235;65054;-67
2021/12/14 07:12:51;;;;;;;;;;;;;;;26.10;65.09;97612.27;602530;235;67439;-70
2021/12/14 07:15:20;;;;;;;;;;;;;;;26.10;61.63;97613.06;602612;235;66931;-69
2021/12/14 07:17:53;;;;;;;;;;;;;;;26.21;59.71;97615.63;602568;235;62712;-67
2021/12/14 07:20:21;;;;;;;;;;;;;;;26.19;60.26;97618.62;602470;235;64979;-72
2021/12/14 07:22:50;;;;;;;;;;;;;;;26.24;58.80;97623.13;602600;235;67051;-71
2021/12/14 07:25:23;;;;;;;;;;;;;;;26.29;60.89;97623.85;602592;235;62996;-68
2021/12/14 07:27:51;;;;;;;;;;;;;;;26.34;60.02;97628.38;602541;235;67243;-68
2021/12/14 07:30:20;;;;;;;;;;;;;;;26.37;59.62;97618.91;602628;235;67057;-67
2021/12/14 07:32:52;;;;;;;;;;;;;;;26.39;59.12;97627.52;602613;235;64641;-67
2021/12/14 07:35:27;;;;;;;;;;;;;;;26.41;58.89;97619.92;602569;235;64844;-69
2021/12/14 07:37:59;;;;;;;;;;;;;;;26.42;61.37;97624.23;602578;235;67097;-72
2021/12/14 07:40:28;;;;;;;;;;;;;;;26.43;59.30;97632.01;602566;235;65205;-68
2021/12/14 07:43:12;;;;;;;;;;;;;;;26.40;60.07;97632.59;602345;235;64649;-74
2021/12/14 07:45:42;;;;;;;;;;;;;;;26.44;57.72;97630.94;602634;235;43323;-75
2021/12/14 07:48:09;;;;;;;;;;;;;;;26.51;57.24;97633.28;602571;235;64917;-74
2021/12/14 07:50:40;;;;;;;;;;;;;;;26.50;57.00;97634.36;602593;235;67264;-77
2021/12/14 07:53:07;;;;;;;;;;;;;;;26.51;58.77;97638.67;602619;235;66802;-73
2021/12/14 07:55:36;;;;;;;;;;;;;;;26.53;59.63;97639.19;602524;235;64837;-65
2021/12/14 07:58:05;;;;;;;;;;;;;;;26.53;57.97;97633.80;602523;235;64915;-73
2021/12/14 08:00:40;;;;;;;;;;;;;;;26.56;59.53;97638.60;602565;235;65854;-74
2021/12/14 08:03:05;;;;;;;;;;;;;;;26.56;57.50;97647.48;602472;235;65005;-73
2021/12/14 08:05:34;;;;;;;;;;;;;;;26.57;56.98;97650.97;602592;235;64886;-73
2021/12/14 08:08:08;;;;;;;;;;;;;;;26.59;58.23;97648.80;602628;235;67053;-74
2021/12/14 08:10:34;;;;;;;;;;;;;;;26.60;58.60;97650.42;602416;235;62872;-73
2021/12/14 08:13:07;;;;;;;;;;;;;;;26.62;57.84;97658.20;603025;235;67177;-71
2021/12/14 08:15:52;;;;;;;;;;;;;;;26.64;58.80;97662.20;603915;235;64739;-74
2021/12/14 08:18:21;;;;;;;;;;;;;;;26.65;57.51;97663.80;602799;235;64925;-73
2021/12/14 08:20:55;;;;;;;;;;;;;;;26.67;57.39;97675.09;603838;235;64556;-70
2021/12/14 08:23:24;;;;;;;;;;;;;;;26.68;57.74;97662.41;603522;235;64912;-66
2021/12/14 08:25:53;;;;;;;;;;;;;;;26.61;57.73;97668.18;603753;235;65079;-63
2021/12/14 08:28:21;;;;;;;;;;;;;;;26.58;58.87;97668.77;603855;235;67481;-68
2021/12/14 08:30:59;;;;;;;;;;;;;;;26.57;57.15;97667.15;603868;235;64819;-69
2021/12/14 08:33:28;;;;;;;;;;;;;;;26.56;55.35;97663.66;603964;235;64890;-69
2021/12/14 08:35:57;;;;;;;;;;;;;;;26.61;56.00;97672.78;603856;235;64975;-74
2021/12/14 08:38:26;;;;;;;;;;;;;;;26.56;55.52;97669.05;603804;235;64629;-72
2021/12/14 08:40:57;;;;;;;;;;;;;;;26.59;55.52;97664.97;603885;235;65032;-76
2021/12/14 08:43:27;;;;;;;;;;;;;;;26.62;55.33;97668.98;603928;235;67013;-72
2021/12/14 08:45:57;;;;;;;;;;;;;;;26.62;55.62;97664.38;603856;235;65041;-73
2021/12/14 08:48:38;;;;;;;;;;;;;;;26.62;55.64;97671.67;603846;235;64896;-73
2021/12/14 08:51:13;;;;;;;;;;;;;;;26.63;56.56;97660.61;603728;235;67383;-73
2021/12/14 08:53:36;;;;;;;;;;;;;;;26.63;56.16;97657.09;603418;235;64810;-74
2021/12/14 08:56:05;;;;;;;;;;;;;;;26.62;56.31;97658.98;603861;235;65192;-73
2021/12/14 08:58:34;;;;;;;;;;;;;;;26.65;56.64;97650.31;601721;235;64535;-75
2021/12/14 09:01:06;;;;;;;;;;;;;;;26.66;55.65;97651.94;608094;233;67028;-71
2021/12/14 09:03:34;;;;;;;;;;;;;;;26.66;56.81;97643.84;607994;233;64879;-71
2021/12/14 09:06:03;;;;;;;;;;;;;;;26.68;56.20;97647.06;608039;233;64808;-71
2021/12/14 09:08:31;;;;;;;;;;;;;;;26.66;55.96;97641.16;608155;233;66625;-73
2021/12/14 09:11:00;;;;;;;;;;;;;;;26.67;56.05;97637.35;608105;233;65000;-69
2021/12/14 09:13:30;;;;;;;;;;;;;;;26.67;56.14;97623.87;608085;233;65129;-72
2021/12/14 09:15:59;;;;;;;;;;;;;;;26.73;57.00;97622.69;608111;233;64608;-73
2021/12/14 09:18:28;;;;;;;;;;;;;;;26.75;56.67;97623.20;608126;233;62986;-72
2021/12/14 09:20:57;;;;;;;;;;;;;;;26.78;56.79;97613.73;608060;233;65016;-73
2021/12/14 09:23:26;;;;;;;;;;;;;;;26.79;56.86;97607.23;601878;235;66884;-72
2021/12/14 09:25:54;;;;;;;;;;;;;;;26.81;57.86;97606.95;601382;236;64769;-71
2021/12/14 09:28:23;;;;;;;;;;;;;;;26.82;56.99;97614.75;602507;233;66587;-72
2021/12/14 09:30:52;;;;;;;;;;;;;;;26.75;56.90;97607.02;608040;233;67021;-73
2021/12/14 09:33:19;;;;;;;;;;;;;;;26.76;57.64;97608.64;608031;233;62773;-70
2021/12/14 09:35:48;;;;;;;;;;;;;;;26.76;58.18;97611.34;607987;233;66788;-72
2021/12/14 09:38:18;;;;;;;;;;;;;;;26.76;58.76;97608.64;608019;233;64890;-73
2021/12/14 09:40:48;;;;;;;;;;;;;;;26.76;58.97;97603.25;608067;233;64860;-72
2021/12/14 09:43:17;;;;;;;;;;;;;;;26.69;56.69;97600.13;608093;233;65233;-73
2021/12/14 09:45:46;;;;;;;;;;;;;;;26.77;55.94;97599.45;608087;233;67060;-73
2021/12/14 09:48:15;;;;;;;;;;;;;;;26.82;57.40;97597.75;608027;233;62823;-74
2021/12/14 09:50:44;;;;;;;;;;;;;;;26.83;55.89;97589.38;608021;232;67192;-71
2021/12/14 09:53:13;;;;;;;;;;;;;;;26.86;56.79;97596.88;608094;233;67041;-72
2021/12/14 09:55:42;;;;;;;;;;;;;;;26.87;55.55;97597.67;608094;233;64908;-72
2021/12/14 09:58:11;;;;;;;;;;;;;;;26.88;56.30;97596.59;608077;233;67300;-72
2021/12/14 10:00:41;;;;;;;;;;;;;;;26.89;56.32;97603.58;607861;233;67058;-70
2021/12/14 10:03:09;;;;;;;;;;;;;;;26.82;56.27;97595.88;607926;232;64853;-69
2021/12/14 10:05:38;;;;;;;;;;;;;;;26.76;57.63;97600.56;608062;233;67013;-72
2021/12/14 10:08:14;;;;;;;;;;;;;;;26.75;56.20;97598.94;597073;233;64144;-70
2021/12/14 10:10:39;;;;;;;;;;;;;;;26.76;57.10;97597.03;602372;233;66468;-70
2021/12/14 10:13:06;;;;;;;;;;;;;;;26.75;56.06;97593.55;608052;233;72060;-70
2021/12/14 10:15:35;;;;;;;;;;;;;;;26.74;57.65;97591.95;608045;233;66948;-70
2021/12/14 10:18:04;;;;;;;;;;;;;;;26.73;57.21;97595.73;608042;233;63823;-70
2021/12/14 10:20:33;;;;;;;;;;;;;;;26.75;57.86;97585.45;607993;233;67030;-69
2021/12/14 10:23:01;;;;;;;;;;;;;;;26.76;57.93;97589.77;603228;233;72203;-70
2021/12/14 10:25:29;;;;;;;;;;;;;;;26.77;57.68;97585.17;608205;233;62772;-70
2021/12/14 10:27:57;;;;;;;;;;;;;;;26.76;56.98;97589.77;608125;233;65191;-70
2021/12/14 10:30:26;;;;;;;;;;;;;;;26.77;58.17;97590.56;608010;233;65157;-69
2021/12/14 10:32:54;;;;;;;;;;;;;;;26.77;57.87;97585.97;607766;233;65136;-70
2021/12/14 10:35:23;;;;;;;;;;;;;;;26.78;57.76;97584.86;608096;233;67342;-69
2021/12/14 10:37:58;;;;;;;;;;;;;;;26.81;58.37;97579.98;607929;233;65000;-69
2021/12/14 10:43:16;;;;;;;;;;;;;;;26.82;57.18;97578.88;608114;233;65005;-69
2021/12/14 10:45:45;;;;;;;;;;;;;;;26.82;56.85;97585.09;608063;233;64419;-68
2021/12/14 10:48:13;;;;;;;;;;;;;;;26.83;57.70;97585.89;608001;233;64904;-70
2021/12/14 10:50:42;;;;;;;;;;;;;;;26.83;56.99;97588.58;608138;233;66649;-67
2021/12/14 10:53:10;;;;;;;;;;;;;;;26.85;58.01;97591.80;607995;233;64787;-69
2021/12/14 10:55:39;;;;;;;;;;;;;;;26.85;57.62;97586.40;608046;233;62921;-68
2021/12/14 10:58:08;;;;;;;;;;;;;;;26.85;57.18;97589.09;607062;233;67681;-68
2021/12/14 11:00:44;;;;;;;;;;;;;;;26.88;57.23;97585.80;589005;235;65698;-69
2021/12/14 11:03:16;;;;;;;;;;;;;;;26.90;56.73;97578.20;597252;233;64679;-70
2021/12/14 11:05:45;;;;;;;;;;;;;;;26.91;56.17;97574.42;608132;233;64153;-70
2021/12/14 11:08:37;;;;;;;;;;;;;;;26.93;57.95;97575.73;608071;233;66742;-71
2021/12/14 11:10:42;;;;;;;;;;;;;;;26.93;57.72;97566.84;607127;233;65072;-71
2021/12/14 11:13:11;;;;;;;;;;;;;;;26.92;57.02;97573.31;607957;233;67209;-70
2021/12/14 11:15:46;;;;;;;;;;;;;;;26.96;58.12;97563.55;608090;233;67048;-72
2021/12/14 11:18:15;;;;;;;;;;;;;;;26.94;58.10;97574.63;608046;233;64943;-70
2021/12/14 11:20:51;;;;;;;;;;;;;;;26.96;58.14;97567.04;607928;233;67030;-69
2021/12/14 11:23:23;;;;;;;;;;;;;;;26.97;57.66;97562.44;608101;233;66967;-70
2021/12/14 11:25:52;;;;;;;;;;;;;;;26.98;57.97;97553.24;608020;233;65142;-69
2021/12/14 11:28:21;;;;;;;;;;;;;;;26.95;57.09;97559.23;608025;233;65075;-69
2021/12/14 11:30:50;;;;;;;;;;;;;;;26.96;57.46;97558.16;608047;233;64567;-61
2021/12/14 11:33:25;;;;;;;;;;;;;;;26.99;58.43;97561.05;608051;233;65026;-69
2021/12/14 11:35:56;;;;;;;;;;;;;;;26.98;57.96;97559.45;608064;233;65128;-70
2021/12/14 11:38:28;;;;;;;;;;;;;;;26.99;57.99;97549.47;607970;233;64674;-69
2021/12/14 11:40:57;;;;;;;;;;;;;;;27.00;57.67;97557.24;607865;233;62925;-68
2021/12/14 11:43:26;;;;;;;;;;;;;;;27.02;57.16;97559.66;608038;233;65166;-70
2021/12/14 11:45:53;;;;;;;;;;;;;;;27.03;58.45;97557.75;608080;233;64984;-69
2021/12/14 11:48:35;;;;;;;;;;;;;;;27.03;59.28;97557.75;608112;233;62960;-70
2021/12/14 11:51:05;;;;;;;;;;;;;;;27.02;58.05;97554.27;607751;233;67196;-67
2021/12/14 11:53:33;;;;;;;;;;;;;;;27.00;57.74;97553.75;608127;233;67021;-68
2021/12/14 11:56:09;;;;;;;;;;;;;;;27.02;58.75;97548.87;608079;233;65171;-68
2021/12/14 11:58:44;;;;;;;;;;;;;;;27.02;58.48;97554.27;602773;235;66906;-68
2021/12/14 12:01:13;;;;;;;;;;;;;;;27.03;57.98;97561.25;607333;233;67162;-69
2021/12/14 12:03:45;;;;;;;;;;;;;;;27.02;58.35;97559.66;607222;233;70781;-70
2021/12/14 12:06:33;;;;;;;;;;;;;;;27.04;58.06;97559.34;607274;233;66936;-68
2021/12/14 12:11:35;;;;;;;;;;;;;;;27.06;58.50;97554.45;607233;233;62773;-67
2021/12/14 12:14:04;;;;;;;;;;;;;;;27.03;57.76;97561.25;607335;233;67338;-66
2021/12/14 12:16:32;;;;;;;;;;;;;;;27.04;58.29;97557.47;606818;233;66951;-68
2021/12/14 12:19:04;;;;;;;;;;;;;;;27.07;58.27;97556.88;607244;233;64923;-67
2021/12/14 12:21:32;;;;;;;;;;;;;;;27.07;57.69;97562.27;607270;233;64867;-68
2021/12/14 12:23:59;;;;;;;;;;;;;;;27.06;57.78;97563.34;607230;233;66855;-67
2021/12/14 12:26:30;;;;;;;;;;;;;;;27.05;58.00;97552.87;607094;233;65043;-67
2021/12/14 12:29:02;;;;;;;;;;;;;;;27.06;58.43;97559.85;606510;233;64629;-68
2021/12/14 12:31:27;;;;;;;;;;;;;;;27.06;57.92;97560.65;607249;233;67087;-68
2021/12/14 12:33:56;;;;;;;;;;;;;;;27.08;58.75;97561.16;607183;233;64899;-67
2021/12/14 12:36:35;;;;;;;;;;;;;;;27.09;58.76;97559.25;607167;233;65155;-67
2021/12/14 12:39:02;;;;;;;;;;;;;;;27.09;57.56;97565.47;607178;232;64988;-68
2021/12/14 12:41:37;;;;;;;;;;;;;;;27.09;57.85;97560.08;607034;233;63641;-69
2021/12/14 12:44:04;;;;;;;;;;;;;;;27.08;57.82;97563.85;606652;233;67208;-70
2021/12/14 12:46:33;;;;;;;;;;;;;;;27.06;56.88;97562.55;607239;233;66825;-62
2021/12/14 12:49:15;;;;;;;;;;;;;;;27.07;58.48;97564.17;607241;233;66023;-62
2021/12/14 12:51:46;;;;;;;;;;;;;;;27.09;57.32;97559.25;607235;233;64939;-62
2021/12/14 12:54:26;;;;;;;;;;;;;;;27.10;57.48;97560.88;607125;233;66757;-62
2021/12/14 12:57:11;;;;;;;;;;;;;;;27.11;57.71;97557.86;607137;233;62519;-66
2021/12/14 12:59:43;;;;;;;;;;;;;;;27.13;57.14;97554.87;608087;233;64939;-62
2021/12/14 13:02:12;;;;;;;;;;;;;;;27.12;57.09;97564.05;607827;233;65160;-62
2021/12/14 13:04:41;;;;;;;;;;;;;;;27.13;57.21;97563.77;607927;233;65110;-62
2021/12/14 13:07:10;;;;;;;;;;;;;;;27.11;56.16;97570.55;608004;233;65728;-61
2021/12/14 13:09:55;;;;;;;;;;;;;;;27.10;56.62;97566.27;608055;233;66882;-61
2021/12/14 13:12:41;;;;;;;;;;;;;;;27.12;56.46;97569.45;608090;233;62813;-62
2021/12/14 13:15:10;;;;;;;;;;;;;;;27.12;56.63;97564.88;608079;233;66940;-62
2021/12/14 13:17:39;;;;;;;;;;;;;;;27.12;56.17;97569.45;605990;233;67055;-65
2021/12/14 13:20:07;;;;;;;;;;;;;;;27.12;57.18;97566.75;608191;233;62759;-64
2021/12/14 13:22:36;;;;;;;;;;;;;;;27.15;57.15;97569.67;608063;233;66999;-63
2021/12/14 13:25:04;;;;;;;;;;;;;;;27.18;57.33;97569.10;607264;233;64755;-65
2021/12/14 13:27:31;;;;;;;;;;;;;;;27.18;57.01;97568.31;608096;233;65458;-67
2021/12/14 13:30:01;;;;;;;;;;;;;;;27.20;56.69;97571.48;607991;233;67340;-65
2021/12/14 13:32:30;;;;;;;;;;;;;;;27.22;57.16;97570.09;608151;233;66848;-65
2021/12/14 13:34:59;;;;;;;;;;;;;;;27.20;56.87;97564.22;608148;233;65063;-64